Time;durP1;ratioP1;P1;durP2;ratioP2;P2;SDS_P1;SDS_P2;PMS_P1;PMS_P2;Temp;Humidity;BMP_temperature;BMP_pressure;BME280_temperature;BME280_humidity;BME280_pressure;Samples;Min_cycle;Max_cycle;Signal;HPM_P1;HPM_P2
2022/05/09 00:00:13;;;;;;;4.40;2.40;;;14.20;55.30;;;;;;5105879;28;20834;-71
2022/05/09 00:02:40;;;;;;;3.58;2.80;;;14.20;55.40;;;;;;5106885;28;20449;-69
2022/05/09 00:05:09;;;;;;;3.47;2.63;;;14.10;55.70;;;;;;5104735;28;20428;-70
2022/05/09 00:07:37;;;;;;;7.40;2.70;;;14.10;55.90;;;;;;5104766;28;20561;-70
2022/05/09 00:10:04;;;;;;;2.80;2.60;;;14.10;56.20;;;;;;5107202;28;20831;-69
2022/05/09 00:12:32;;;;;;;4.97;2.78;;;14.00;55.70;;;;;;5108212;22;20442;-64
2022/05/09 00:14:58;;;;;;;3.75;2.80;;;14.00;57.40;;;;;;5071666;28;20450;-64
2022/05/09 00:17:25;;;;;;;3.88;2.60;;;13.90;55.70;;;;;;5082121;28;20426;-66
2022/05/09 00:19:51;;;;;;;3.88;2.92;;;13.90;56.40;;;;;;5080287;28;20566;-66
2022/05/09 00:22:18;;;;;;;3.10;2.67;;;13.90;56.80;;;;;;5070511;28;20469;-65
2022/05/09 00:24:46;;;;;;;4.03;2.50;;;13.90;56.30;;;;;;5074629;28;20491;-64
2022/05/09 00:27:13;;;;;;;3.85;2.60;;;13.80;56.70;;;;;;5072621;28;21033;-64
2022/05/09 00:29:39;;;;;;;3.13;2.43;;;13.80;56.70;;;;;;5073021;28;20421;-64
2022/05/09 00:32:07;;;;;;;4.20;2.70;;;13.80;56.90;;;;;;5067141;28;20447;-64
2022/05/09 00:34:37;;;;;;;4.80;2.90;;;13.80;56.90;;;;;;5072796;28;20430;-65
2022/05/09 00:37:05;;;;;;;3.72;2.55;;;13.80;57.10;;;;;;5073564;28;20436;-64
2022/05/09 00:39:33;;;;;;;5.15;2.90;;;13.80;57.30;;;;;;5071062;28;20562;-65
2022/05/09 00:42:08;;;;;;;3.25;2.65;;;13.70;57.10;;;;;;5074914;28;20512;-65
2022/05/09 00:44:35;;;;;;;3.67;2.90;;;13.70;57.30;;;;;;5079930;28;20430;-65
2022/05/09 00:47:01;;;;;;;3.80;3.10;;;13.70;57.40;;;;;;5077174;28;20923;-66
2022/05/09 00:49:33;;;;;;;5.70;2.67;;;13.70;57.60;;;;;;5081341;28;20426;-65
2022/05/09 00:52:08;;;;;;;4.13;2.80;;;13.70;57.30;;;;;;5071470;28;20434;-65
2022/05/09 00:54:40;;;;;;;3.73;2.70;;;13.70;57.40;;;;;;5069377;28;20535;-66
2022/05/09 00:57:15;;;;;;;4.90;2.63;;;13.70;57.80;;;;;;5076656;28;20431;-66
2022/05/09 00:59:43;;;;;;;4.30;2.92;;;13.70;58.10;;;;;;5074263;28;20442;-66
2022/05/09 01:02:10;;;;;;;4.50;2.73;;;13.60;58.00;;;;;;5076659;28;21038;-66
2022/05/09 01:04:52;;;;;;;4.57;3.20;;;13.60;58.00;;;;;;5081955;28;20509;-65
2022/05/09 01:07:19;;;;;;;6.97;3.38;;;13.60;58.20;;;;;;5073825;28;20470;-66
2022/05/09 01:09:47;;;;;;;4.60;3.00;;;13.60;58.40;;;;;;5082148;28;20429;-66
2022/05/09 01:12:19;;;;;;;5.25;3.10;;;13.60;58.50;;;;;;5080512;28;20593;-65
2022/05/09 01:14:46;;;;;;;3.90;2.80;;;13.60;58.90;;;;;;5074995;28;20545;-66
2022/05/09 01:17:14;;;;;;;4.03;2.47;;;13.50;59.00;;;;;;5076783;28;20430;-65
2022/05/09 01:19:42;;;;;;;4.25;3.40;;;13.50;58.90;;;;;;5075636;28;20431;-65
2022/05/09 01:22:22;;;;;;;4.83;2.90;;;13.40;58.50;;;;;;5071262;28;20992;-65
2022/05/09 01:24:49;;;;;;;3.53;3.08;;;13.30;59.20;;;;;;5075889;28;20529;-65
2022/05/09 01:27:16;;;;;;;3.50;2.63;;;13.20;59.70;;;;;;5072193;28;20502;-65
2022/05/09 01:29:50;;;;;;;3.97;2.88;;;13.20;60.10;;;;;;5082180;28;20435;-65
2022/05/09 01:32:21;;;;;;;5.10;3.25;;;13.10;60.50;;;;;;5076212;28;20733;-66
2022/05/09 01:34:53;;;;;;;4.50;2.70;;;13.10;59.90;;;;;;5080198;28;20426;-65
2022/05/09 01:37:22;;;;;;;4.80;3.10;;;13.10;60.90;;;;;;5076813;28;20799;-66
2022/05/09 01:39:49;;;;;;;4.70;3.10;;;13.00;60.90;;;;;;5074912;28;20484;-65
2022/05/09 01:42:15;;;;;;;4.10;2.97;;;13.10;60.60;;;;;;5073993;28;20430;-65
2022/05/09 01:44:43;;;;;;;4.03;3.10;;;13.10;60.50;;;;;;5079158;28;21052;-65
2022/05/09 01:49:54;;;;;;;4.88;3.35;;;13.00;60.20;;;;;;5073695;28;20912;-65
2022/05/09 01:52:22;;;;;;;4.30;3.00;;;13.00;60.40;;;;;;5072133;28;20450;-66
2022/05/09 01:54:49;;;;;;;5.38;3.10;;;13.00;59.90;;;;;;5081994;28;20532;-64
2022/05/09 01:57:16;;;;;;;3.53;2.90;;;13.00;58.90;;;;;;5074241;28;20415;-65
2022/05/09 01:59:44;;;;;;;3.40;2.70;;;13.00;59.10;;;;;;5072249;28;20459;-66
2022/05/09 02:02:13;;;;;;;4.30;2.80;;;13.00;59.10;;;;;;5078704;28;20429;-66
2022/05/09 02:04:41;;;;;;;3.25;2.70;;;13.00;59.40;;;;;;5072594;28;20546;-65
2022/05/09 02:07:09;;;;;;;3.30;2.65;;;13.00;59.30;;;;;;5076681;28;20433;-66
2022/05/09 02:09:39;;;;;;;4.10;3.00;;;13.00;59.30;;;;;;5076512;28;20452;-65
2022/05/09 02:12:06;;;;;;;3.35;2.90;;;12.90;59.10;;;;;;5080667;28;20831;-66
2022/05/09 02:14:33;;;;;;;7.60;2.90;;;12.90;59.10;;;;;;5077856;28;20487;-66
2022/05/09 02:17:00;;;;;;;4.45;3.10;;;12.80;59.50;;;;;;5082211;28;20510;-66
2022/05/09 02:19:27;;;;;;;5.40;3.00;;;12.80;60.10;;;;;;5067759;28;20462;-66
2022/05/09 02:21:53;;;;;;;4.50;2.83;;;12.80;60.10;;;;;;5072573;28;20438;-66
2022/05/09 02:24:21;;;;;;;3.70;2.60;;;12.70;60.30;;;;;;5072777;28;20435;-66
2022/05/09 02:26:49;;;;;;;3.42;3.00;;;12.70;60.60;;;;;;5071436;28;20460;-66
2022/05/09 02:29:15;;;;;;;4.05;3.38;;;12.60;60.90;;;;;;5072546;28;20518;-65
2022/05/09 02:31:42;;;;;;;3.40;2.70;;;12.60;61.20;;;;;;5074437;28;20434;-66
2022/05/09 02:34:09;;;;;;;3.10;2.80;;;12.60;61.50;;;;;;5071111;28;20902;-66
2022/05/09 02:36:36;;;;;;;4.80;3.20;;;12.50;61.70;;;;;;5080980;28;20429;-66
2022/05/09 02:39:02;;;;;;;5.38;3.17;;;12.50;61.90;;;;;;5079031;28;20464;-64
2022/05/09 02:41:30;;;;;;;5.13;3.30;;;12.50;61.70;;;;;;5069124;28;20446;-67
2022/05/09 02:43:58;;;;;;;4.10;3.20;;;12.50;61.70;;;;;;5071720;28;20481;-64
2022/05/09 02:46:25;;;;;;;4.93;3.60;;;12.40;61.70;;;;;;5068814;28;20468;-64
2022/05/09 02:48:52;;;;;;;4.03;3.30;;;12.40;62.40;;;;;;5077518;28;20449;-65
2022/05/09 02:51:19;;;;;;;3.38;2.90;;;12.40;62.30;;;;;;5067909;28;20431;-64
2022/05/09 02:53:46;;;;;;;4.00;3.10;;;12.40;62.50;;;;;;5070645;28;20420;-65
2022/05/09 02:56:12;;;;;;;3.70;3.40;;;12.30;62.90;;;;;;5069536;28;20433;-65
2022/05/09 02:58:39;;;;;;;3.30;3.00;;;12.30;62.50;;;;;;5077535;28;20999;-63
2022/05/09 03:01:07;;;;;;;3.70;2.80;;;12.20;62.60;;;;;;5077604;28;20494;-65
2022/05/09 03:06:18;;;;;;;4.53;3.53;;;12.20;64.40;;;;;;5073339;28;20450;-64
2022/05/09 03:08:45;;;;;;;5.60;3.80;;;12.20;64.20;;;;;;5072185;28;20534;-64
2022/05/09 03:11:12;;;;;;;5.50;3.35;;;12.20;65.00;;;;;;5066072;28;20427;-64
2022/05/09 03:13:39;;;;;;;3.50;3.20;;;12.20;65.70;;;;;;5076152;28;20514;-64
2022/05/09 03:16:09;;;;;;;5.53;3.60;;;12.20;64.90;;;;;;5072121;28;20434;-64
2022/05/09 03:18:36;;;;;;;5.13;3.50;;;12.20;65.40;;;;;;5073201;28;20432;-65
2022/05/09 03:21:04;;;;;;;4.50;3.60;;;12.20;65.30;;;;;;5067006;28;20902;-64
2022/05/09 03:23:31;;;;;;;5.10;4.50;;;12.20;66.40;;;;;;5073836;28;20563;-65
2022/05/09 03:25:57;;;;;;;5.78;4.40;;;12.10;65.70;;;;;;5075721;28;20461;-64
2022/05/09 03:28:26;;;;;;;4.93;4.20;;;12.10;65.60;;;;;;5074448;28;20899;-64
2022/05/09 03:30:54;;;;;;;5.80;4.03;;;12.10;66.10;;;;;;5077918;28;20455;-64
2022/05/09 03:33:24;;;;;;;5.55;4.20;;;12.10;66.40;;;;;;5074606;28;20481;-63
2022/05/09 03:35:52;;;;;;;5.57;4.10;;;12.10;66.30;;;;;;5073837;28;20533;-64
2022/05/09 03:38:19;;;;;;;4.60;3.80;;;12.00;66.10;;;;;;5070617;28;20476;-65
2022/05/09 03:40:46;;;;;;;4.22;3.70;;;12.00;66.70;;;;;;5071577;28;20431;-66
2022/05/09 03:43:13;;;;;;;4.60;3.55;;;12.00;66.40;;;;;;5071189;28;20945;-66
2022/05/09 03:45:42;;;;;;;4.65;3.90;;;12.00;66.60;;;;;;5073195;28;20928;-64
2022/05/09 03:48:09;;;;;;;6.05;4.10;;;12.00;66.20;;;;;;5069135;28;20428;-66
2022/05/09 03:50:37;;;;;;;5.60;5.10;;;12.00;65.40;;;;;;5073624;28;20589;-64
2022/05/09 03:53:04;;;;;;;4.20;3.80;;;11.90;65.70;;;;;;5075254;28;20439;-66
2022/05/09 03:55:33;;;;;;;3.90;3.42;;;11.90;65.70;;;;;;5080598;28;20883;-64
2022/05/09 03:58:00;;;;;;;5.55;3.90;;;11.90;66.10;;;;;;5072148;28;21150;-65
2022/05/09 04:00:32;;;;;;;4.88;4.00;;;11.90;65.80;;;;;;5068506;28;20465;-63
2022/05/09 04:02:59;;;;;;;4.38;3.95;;;11.90;66.10;;;;;;5068796;28;20783;-63
2022/05/09 04:05:30;;;;;;;5.00;3.90;;;11.90;66.20;;;;;;5074324;28;20588;-64
2022/05/09 04:07:59;;;;;;;4.55;3.72;;;12.00;66.30;;;;;;5072374;28;20425;-64
2022/05/09 04:10:29;;;;;;;4.38;3.92;;;11.90;66.50;;;;;;5070162;28;20441;-65
2022/05/09 04:12:55;;;;;;;4.00;3.60;;;11.90;66.70;;;;;;5075926;28;20445;-64
2022/05/09 04:18:08;;;;;;;6.43;4.00;;;11.90;67.20;;;;;;5070279;28;20624;-64
2022/05/09 04:20:35;;;;;;;7.40;4.70;;;11.90;67.80;;;;;;5077735;28;20491;-64
2022/05/09 04:23:04;;;;;;;5.97;4.80;;;11.90;67.90;;;;;;5069411;28;20711;-66
2022/05/09 04:25:32;;;;;;;4.93;3.80;;;11.90;68.50;;;;;;5068224;28;20471;-63
2022/05/09 04:27:59;;;;;;;7.25;5.10;;;11.90;68.40;;;;;;5081926;28;20526;-64
2022/05/09 04:30:25;;;;;;;6.53;5.07;;;11.90;68.80;;;;;;5065716;28;20431;-67
2022/05/09 04:32:52;;;;;;;6.95;5.25;;;11.90;69.10;;;;;;5066065;28;20960;-66
2022/05/09 04:35:20;;;;;;;7.43;5.88;;;11.80;69.00;;;;;;5074477;28;20854;-66
2022/05/09 04:37:47;;;;;;;8.70;5.55;;;11.70;69.60;;;;;;5072695;28;20424;-66
2022/05/09 04:40:16;;;;;;;6.78;5.47;;;11.70;69.90;;;;;;5078682;28;20536;-64
2022/05/09 04:42:43;;;;;;;9.25;5.10;;;11.70;70.40;;;;;;5072813;28;20419;-66
2022/05/09 04:45:11;;;;;;;7.38;5.90;;;11.70;70.80;;;;;;5078637;28;20414;-63
2022/05/09 04:47:38;;;;;;;7.40;5.80;;;11.80;71.20;;;;;;5073830;28;20431;-65
2022/05/09 04:50:06;;;;;;;6.45;4.95;;;11.80;71.00;;;;;;5074699;28;20435;-65
2022/05/09 04:52:33;;;;;;;4.90;4.50;;;11.80;70.60;;;;;;5074045;28;20519;-64
2022/05/09 04:54:59;;;;;;;6.80;4.97;;;11.90;71.50;;;;;;5068018;28;21115;-65
2022/05/09 04:57:27;;;;;;;5.80;4.57;;;11.90;71.30;;;;;;5070457;28;20449;-64
2022/05/09 04:59:54;;;;;;;5.53;4.70;;;11.90;70.70;;;;;;5075752;28;20506;-64
2022/05/09 05:02:21;;;;;;;5.40;4.50;;;11.90;71.10;;;;;;5068443;28;20499;-66
2022/05/09 05:04:47;;;;;;;6.00;5.50;;;11.90;72.60;;;;;;5070649;28;20528;-64
2022/05/09 05:07:14;;;;;;;5.80;5.20;;;11.90;73.30;;;;;;5068891;28;21222;-63
2022/05/09 05:09:40;;;;;;;7.40;5.20;;;11.90;74.60;;;;;;5071711;28;20517;-64
2022/05/09 05:12:08;;;;;;;6.50;5.20;;;11.90;75.10;;;;;;5071664;28;20434;-65
2022/05/09 05:14:36;;;;;;;5.90;5.30;;;11.90;74.60;;;;;;5070370;28;20434;-65
2022/05/09 05:17:03;;;;;;;6.47;5.88;;;11.90;74.30;;;;;;5071458;28;20793;-63
2022/05/09 05:19:35;;;;;;;5.55;4.95;;;11.90;74.70;;;;;;5074103;28;20487;-65
2022/05/09 05:22:03;;;;;;;5.22;4.72;;;11.90;74.80;;;;;;5070792;28;20429;-66
2022/05/09 05:24:32;;;;;;;5.80;5.20;;;12.00;75.50;;;;;;5070953;28;20528;-65
2022/05/09 05:26:59;;;;;;;6.00;5.50;;;12.00;74.90;;;;;;5072923;28;20449;-64
2022/05/09 05:29:26;;;;;;;6.93;5.40;;;12.00;76.00;;;;;;5071072;28;20562;-65
2022/05/09 05:31:54;;;;;;;8.85;6.05;;;12.10;75.80;;;;;;5068891;28;20434;-65
2022/05/09 05:34:20;;;;;;;6.15;5.55;;;12.10;75.00;;;;;;5079249;28;20553;-65
2022/05/09 05:36:48;;;;;;;7.20;6.50;;;12.10;75.30;;;;;;5070028;28;20426;-65
2022/05/09 05:39:15;;;;;;;6.90;5.95;;;12.20;75.20;;;;;;5063233;28;20427;-65
2022/05/09 05:41:43;;;;;;;7.05;5.80;;;12.20;74.60;;;;;;5063094;28;20412;-66
2022/05/09 05:44:11;;;;;;;10.05;5.75;;;12.20;74.80;;;;;;5068651;28;20530;-66
2022/05/09 05:46:39;;;;;;;9.55;6.30;;;12.20;74.90;;;;;;5067038;28;20975;-66
2022/05/09 05:49:07;;;;;;;8.90;5.97;;;12.30;75.30;;;;;;5079612;28;20517;-68
2022/05/09 05:51:34;;;;;;;7.13;6.05;;;12.30;74.60;;;;;;5068350;28;21127;-64
2022/05/09 05:54:00;;;;;;;7.70;5.60;;;12.30;74.00;;;;;;5078099;28;20548;-66
2022/05/09 05:56:27;;;;;;;6.80;5.70;;;12.40;74.00;;;;;;5078888;28;20421;-64
2022/05/09 05:58:54;;;;;;;7.13;6.10;;;12.30;72.80;;;;;;5082679;28;20802;-63
2022/05/09 06:01:22;;;;;;;8.02;6.10;;;12.30;72.40;;;;;;5073256;28;20443;-65
2022/05/09 06:03:49;;;;;;;6.13;5.20;;;12.30;71.90;;;;;;5075817;28;20439;-65
2022/05/09 06:06:17;;;;;;;7.47;5.50;;;12.30;71.40;;;;;;5070571;28;20435;-64
2022/05/09 06:08:45;;;;;;;5.60;4.70;;;12.40;71.10;;;;;;5066092;28;20436;-63
2022/05/09 06:11:13;;;;;;;6.50;4.80;;;12.40;70.40;;;;;;5066630;28;20431;-64
2022/05/09 06:13:40;;;;;;;6.40;4.95;;;12.40;70.50;;;;;;5064278;28;20419;-63
2022/05/09 06:16:07;;;;;;;6.97;5.00;;;12.50;69.00;;;;;;5070269;28;20503;-64
2022/05/09 06:18:33;;;;;;;6.30;4.50;;;12.50;69.50;;;;;;5072787;28;20519;-65
2022/05/09 06:21:00;;;;;;;6.57;4.50;;;12.50;69.00;;;;;;5073459;28;20435;-64
2022/05/09 06:23:28;;;;;;;4.88;4.30;;;12.70;68.10;;;;;;5079987;28;20438;-64
2022/05/09 06:25:56;;;;;;;8.77;4.50;;;12.70;68.30;;;;;;5064649;28;20439;-64
2022/05/09 06:28:24;;;;;;;7.30;4.20;;;12.90;68.60;;;;;;5066277;28;20432;-64
2022/05/09 06:30:51;;;;;;;5.00;4.50;;;13.00;67.30;;;;;;5069541;28;20678;-64
2022/05/09 06:33:23;;;;;;;6.18;4.00;;;13.10;66.50;;;;;;5113679;22;20952;-74
2022/05/09 06:35:50;;;;;;;6.80;4.00;;;13.30;65.40;;;;;;5128774;27;20428;-74
2022/05/09 06:38:18;;;;;;;6.32;4.30;;;13.40;65.20;;;;;;5126203;27;20430;-73
2022/05/09 06:40:46;;;;;;;6.00;4.40;;;13.50;64.90;;;;;;5130618;27;20433;-74
2022/05/09 06:43:13;;;;;;;7.13;4.65;;;13.70;64.70;;;;;;5112048;27;20412;-74
2022/05/09 06:45:40;;;;;;;6.30;4.10;;;13.80;63.80;;;;;;5109515;28;20909;-73
2022/05/09 06:48:08;;;;;;;9.45;5.13;;;14.00;64.00;;;;;;5105435;28;20448;-73
2022/05/09 06:50:36;;;;;;;5.40;4.13;;;14.10;63.50;;;;;;5109152;28;20804;-73
2022/05/09 06:53:04;;;;;;;4.45;3.88;;;14.30;62.30;;;;;;5108348;28;20443;-73
2022/05/09 06:55:31;;;;;;;5.50;3.70;;;14.50;60.70;;;;;;5111041;27;20459;-74
2022/05/09 06:57:59;;;;;;;7.30;4.20;;;14.60;60.50;;;;;;5111539;28;20419;-74
2022/05/09 07:00:27;;;;;;;6.60;4.00;;;14.80;59.00;;;;;;5109325;27;20831;-72
2022/05/09 07:02:54;;;;;;;5.47;3.70;;;14.90;59.00;;;;;;5109519;28;20428;-72
2022/05/09 07:05:21;;;;;;;6.30;4.30;;;15.00;58.20;;;;;;5111696;28;20815;-72
2022/05/09 07:07:49;;;;;;;7.22;3.85;;;15.00;58.20;;;;;;5110915;28;20424;-73
2022/05/09 07:10:17;;;;;;;7.07;4.07;;;15.00;58.60;;;;;;5114454;28;20500;-72
2022/05/09 07:12:45;;;;;;;7.15;4.10;;;15.10;59.00;;;;;;5114265;28;20439;-73
2022/05/09 07:15:15;;;;;;;4.80;3.80;;;15.20;58.50;;;;;;5108215;28;20484;-72
2022/05/09 07:17:42;;;;;;;9.73;4.88;;;15.40;57.60;;;;;;5111312;28;20420;-72
2022/05/09 07:20:10;;;;;;;8.05;4.35;;;15.60;57.90;;;;;;5112721;28;20412;-72
2022/05/09 07:22:37;;;;;;;5.70;3.77;;;15.80;56.60;;;;;;5111878;27;20428;-72
2022/05/09 07:25:04;;;;;;;9.37;4.20;;;16.10;55.40;;;;;;5110845;28;20423;-73
2022/05/09 07:27:31;;;;;;;6.35;3.60;;;16.20;55.40;;;;;;5102425;28;20428;-73
2022/05/09 07:29:58;;;;;;;8.02;4.20;;;16.40;55.20;;;;;;5103640;28;20424;-73
2022/05/09 07:32:26;;;;;;;9.50;5.03;;;16.60;55.20;;;;;;5108218;28;20435;-73
2022/05/09 07:34:53;;;;;;;8.63;4.50;;;16.90;54.50;;;;;;5106754;28;20481;-73
2022/05/09 07:37:21;;;;;;;5.25;3.60;;;17.10;52.90;;;;;;5137556;27;20427;-75
2022/05/09 07:39:48;;;;;;;6.78;3.50;;;17.30;52.00;;;;;;5134748;28;20468;-73
2022/05/09 07:42:15;;;;;;;4.18;3.10;;;17.50;51.70;;;;;;5128442;28;20424;-74
2022/05/09 07:44:41;;;;;;;5.38;3.40;;;17.70;50.40;;;;;;5131079;28;20404;-73
2022/05/09 07:47:09;;;;;;;5.50;3.00;;;17.80;49.90;;;;;;5125362;28;20404;-72
2022/05/09 07:49:37;;;;;;;6.82;3.63;;;17.80;49.40;;;;;;5132020;27;20404;-73
2022/05/09 07:52:05;;;;;;;3.95;2.80;;;17.80;50.50;;;;;;5131779;27;20423;-73
2022/05/09 07:54:32;;;;;;;5.38;3.80;;;18.00;49.10;;;;;;5135872;27;20459;-72
2022/05/09 07:56:59;;;;;;;3.88;3.10;;;18.20;48.60;;;;;;5128235;27;20428;-73
2022/05/09 07:59:25;;;;;;;4.30;3.10;;;18.30;48.30;;;;;;5128391;28;20452;-65
2022/05/09 08:01:52;;;;;;;3.75;3.22;;;18.40;48.20;;;;;;5128523;27;20457;-73
2022/05/09 08:04:19;;;;;;;3.50;2.83;;;18.70;47.90;;;;;;5122818;28;20432;-73
2022/05/09 08:06:47;;;;;;;4.75;3.15;;;18.70;46.50;;;;;;5132510;28;20391;-72
2022/05/09 08:09:14;;;;;;;5.22;3.40;;;18.80;47.10;;;;;;5123622;28;20428;-72
2022/05/09 08:11:41;;;;;;;4.20;3.00;;;18.80;46.80;;;;;;5124842;28;20428;-70
2022/05/09 08:14:09;;;;;;;3.72;3.30;;;18.90;47.30;;;;;;5121337;28;20957;-72
2022/05/09 08:16:36;;;;;;;5.00;3.70;;;19.30;46.50;;;;;;5114421;28;20925;-69
2022/05/09 08:19:03;;;;;;;4.82;3.10;;;19.40;47.00;;;;;;5113010;28;20818;-69
2022/05/09 08:21:30;;;;;;;10.50;3.70;;;19.60;46.00;;;;;;5108629;28;20431;-67
2022/05/09 08:23:58;;;;;;;7.15;3.60;;;19.90;46.60;;;;;;5122789;27;20722;-70
2022/05/09 08:26:26;;;;;;;4.18;3.38;;;20.20;45.00;;;;;;5126174;27;20479;-66
2022/05/09 08:28:53;;;;;;;4.40;3.45;;;20.40;45.10;;;;;;5121367;28;20428;-67
2022/05/09 08:31:22;;;;;;;5.05;3.80;;;20.40;44.70;;;;;;5126879;27;20423;-68
2022/05/09 08:33:52;;;;;;;5.10;3.40;;;20.40;45.00;;;;;;5121135;28;20434;-68
2022/05/09 08:39:01;;;;;;;4.82;3.60;;;20.60;44.80;;;;;;5116725;28;20420;-67
2022/05/09 08:41:36;;;;;;;4.93;3.40;;;21.00;43.00;;;;;;5110627;28;20809;-67
2022/05/09 08:44:14;;;;;;;7.50;3.70;;;21.20;44.00;;;;;;5103512;28;20429;-67
2022/05/09 08:46:52;;;;;;;5.35;3.67;;;21.30;42.90;;;;;;5108294;28;20882;-68
2022/05/09 08:49:38;;;;;;;6.63;3.30;;;21.40;42.80;;;;;;5108323;28;20428;-67
2022/05/09 08:52:13;;;;;;;5.45;3.90;;;21.70;42.40;;;;;;5105500;28;20451;-68
2022/05/09 08:54:42;;;;;;;4.30;3.78;;;21.80;42.10;;;;;;5107097;28;20904;-68
2022/05/09 08:57:13;;;;;;;4.90;3.30;;;21.90;43.40;;;;;;5112404;28;20414;-67
2022/05/09 08:59:46;;;;;;;4.45;4.05;;;21.90;42.30;;;;;;5109887;28;20428;-67
2022/05/09 09:02:15;;;;;;;4.47;3.60;;;22.00;41.80;;;;;;5108201;28;20511;-67
2022/05/09 09:04:50;;;;;;;6.03;4.10;;;22.10;41.90;;;;;;5110506;28;20420;-67
2022/05/09 09:07:32;;;;;;;4.38;3.60;;;22.30;41.90;;;;;;5109673;28;20497;-68
2022/05/09 09:10:09;;;;;;;4.75;3.83;;;22.50;41.00;;;;;;5101167;28;20425;-68
2022/05/09 09:12:47;;;;;;;5.20;4.30;;;22.40;40.90;;;;;;5109989;28;20416;-69
2022/05/09 09:15:25;;;;;;;3.90;3.55;;;22.40;41.20;;;;;;5110856;28;20408;-67
2022/05/09 09:18:17;;;;;;;4.63;4.13;;;22.40;41.60;;;;;;5107162;28;20430;-69
2022/05/09 09:20:56;;;;;;;5.90;3.67;;;22.80;40.80;;;;;;5104926;28;20497;-69
2022/05/09 09:23:38;;;;;;;4.47;3.83;;;23.20;40.60;;;;;;5112567;28;20427;-66
2022/05/09 09:26:16;;;;;;;4.40;3.63;;;23.40;39.40;;;;;;5108885;28;21211;-69
2022/05/09 09:28:49;;;;;;;5.30;3.70;;;23.50;38.80;;;;;;5111122;28;20454;-69
2022/05/09 09:31:22;;;;;;;4.65;4.10;;;23.50;38.70;;;;;;5113429;27;20995;-68
2022/05/09 09:33:53;;;;;;;4.95;3.80;;;23.40;39.10;;;;;;5111379;28;20427;-69
2022/05/09 09:36:23;;;;;;;6.40;3.88;;;23.50;39.40;;;;;;5111441;28;20541;-69
2022/05/09 09:38:55;;;;;;;5.40;3.90;;;23.70;39.30;;;;;;5106482;28;20435;-69
2022/05/09 09:41:27;;;;;;;4.97;3.70;;;23.90;39.10;;;;;;5108510;28;20503;-68
2022/05/09 09:44:00;;;;;;;5.05;3.85;;;24.00;38.70;;;;;;5107935;28;20920;-67
2022/05/09 09:46:26;;;;;;;4.35;3.80;;;24.10;38.70;;;;;;5105596;28;20510;-67
2022/05/09 09:49:07;;;;;;;5.18;3.83;;;24.30;38.00;;;;;;5112388;28;20524;-68
2022/05/09 09:51:45;;;;;;;4.90;3.70;;;24.40;37.60;;;;;;5113281;28;20431;-73
2022/05/09 09:54:13;;;;;;;3.95;3.65;;;24.60;37.40;;;;;;5113785;28;20959;-67
2022/05/09 09:56:42;;;;;;;4.43;3.60;;;24.70;37.80;;;;;;5109729;28;20457;-74
2022/05/09 09:59:32;;;;;;;4.78;3.67;;;24.90;37.50;;;;;;5124322;28;20451;-75
2022/05/09 10:02:07;;;;;;;4.78;3.83;;;25.20;37.60;;;;;;5129038;27;20422;-71
2022/05/09 10:04:33;;;;;;;6.40;3.73;;;25.50;36.30;;;;;;5132393;28;20449;-74
2022/05/09 10:07:03;;;;;;;3.90;3.50;;;25.80;36.20;;;;;;5119412;28;20437;-72
2022/05/09 10:09:36;;;;;;;4.00;3.40;;;25.90;35.70;;;;;;5116821;28;20424;-72
2022/05/09 10:12:20;;;;;;;4.40;3.77;;;26.00;35.90;;;;;;5111996;27;20909;-76
2022/05/09 10:14:46;;;;;;;5.53;3.70;;;26.30;35.60;;;;;;5114545;27;20492;-73
2022/05/09 10:17:20;;;;;;;6.68;3.80;;;26.40;34.40;;;;;;5110730;28;20424;-76
2022/05/09 10:19:50;;;;;;;4.43;3.80;;;26.60;34.90;;;;;;5113831;28;20427;-74
2022/05/09 10:25:12;;;;;;;6.72;3.90;;;26.60;34.50;;;;;;5106215;28;20938;-75
2022/05/09 10:27:41;;;;;;;4.30;3.90;;;26.90;34.10;;;;;;5109890;28;20477;-75
2022/05/09 10:30:30;;;;;;;4.22;3.50;;;27.00;33.20;;;;;;5115199;28;20424;-75
2022/05/09 10:33:01;;;;;;;4.28;3.58;;;27.10;34.00;;;;;;5119172;27;20509;-76
2022/05/09 10:35:34;;;;;;;4.20;3.50;;;27.40;33.30;;;;;;5105516;27;20984;-74
2022/05/09 10:38:03;;;;;;;3.63;3.30;;;27.60;32.70;;;;;;5110685;27;20428;-75
2022/05/09 10:40:34;;;;;;;4.38;3.97;;;27.50;33.00;;;;;;5111463;28;20436;-77
2022/05/09 10:43:06;;;;;;;3.95;3.22;;;27.60;31.90;;;;;;5110176;28;20815;-69
2022/05/09 10:45:36;;;;;;;3.73;3.43;;;28.00;31.70;;;;;;5110426;28;20986;-76
2022/05/09 10:48:10;;;;;;;3.88;3.47;;;28.20;32.30;;;;;;5111326;28;20532;-69
2022/05/09 10:50:43;;;;;;;4.82;3.45;;;28.30;31.90;;;;;;5110286;27;20427;-74
2022/05/09 10:53:15;;;;;;;3.67;3.30;;;28.50;32.10;;;;;;5111439;28;20428;-72
2022/05/09 10:55:47;;;;;;;4.53;3.75;;;28.90;31.60;;;;;;5110031;27;20428;-73
2022/05/09 10:58:24;;;;;;;4.40;4.00;;;28.70;30.40;;;;;;5110351;28;20428;-73
2022/05/09 11:01:07;;;;;;;4.03;3.45;;;28.70;30.40;;;;;;5106802;28;20507;-73
2022/05/09 11:03:35;;;;;;;3.80;3.50;;;28.70;30.90;;;;;;5111291;28;20416;-73
2022/05/09 11:06:22;;;;;;;3.60;3.30;;;28.80;30.20;;;;;;5110268;28;20438;-73
2022/05/09 11:09:18;;;;;;;3.80;3.40;;;28.60;30.10;;;;;;5110369;28;20504;-74
2022/05/09 11:12:01;;;;;;;3.90;3.60;;;28.50;30.40;;;;;;5110258;28;20420;-75
2022/05/09 11:14:38;;;;;;;3.53;3.22;;;28.40;30.80;;;;;;5119150;28;20449;-75
2022/05/09 11:17:28;;;;;;;3.60;3.30;;;28.30;30.60;;;;;;5127900;28;20426;-74
2022/05/09 11:20:12;;;;;;;4.53;3.40;;;28.30;30.60;;;;;;5115509;28;20428;-74
2022/05/09 11:22:50;;;;;;;3.78;3.47;;;28.40;30.20;;;;;;5107723;28;20432;-73
2022/05/09 11:25:36;;;;;;;4.00;3.47;;;28.50;30.10;;;;;;5109910;28;20485;-73
2022/05/09 11:28:20;;;;;;;3.88;2.70;;;28.50;30.30;;;;;;5107996;28;20519;-74
2022/05/09 11:30:52;;;;;;;3.25;3.00;;;28.60;30.40;;;;;;5107398;28;20424;-74
2022/05/09 11:33:38;;;;;;;3.20;3.00;;;28.60;29.60;;;;;;5107898;27;20439;-73
2022/05/09 11:36:26;;;;;;;6.78;3.50;;;28.60;30.20;;;;;;5109306;28;20455;-76
2022/05/09 11:38:59;;;;;;;2.95;2.72;;;28.70;29.60;;;;;;5109599;28;20410;-72
2022/05/09 11:41:32;;;;;;;2.83;2.63;;;29.00;29.90;;;;;;5110622;28;20438;-70
2022/05/09 11:44:14;;;;;;;3.10;2.90;;;29.00;29.10;;;;;;5109736;28;20415;-71
2022/05/09 11:47:10;;;;;;;2.90;2.60;;;29.10;29.50;;;;;;5108338;28;20797;-72
2022/05/09 11:50:09;;;;;;;3.20;2.90;;;29.00;30.30;;;;;;5108434;28;20897;-71
2022/05/09 11:52:39;;;;;;;3.10;2.70;;;29.10;28.00;;;;;;5109069;28;20473;-72
2022/05/09 11:55:09;;;;;;;2.65;2.45;;;29.00;28.30;;;;;;5107155;28;20428;-72
2022/05/09 11:57:38;;;;;;;3.35;2.88;;;28.90;29.80;;;;;;5108049;28;20847;-72
2022/05/09 12:00:10;;;;;;;2.97;2.78;;;28.80;28.20;;;;;;5107634;28;20519;-72
2022/05/09 12:02:50;;;;;;;2.95;2.75;;;28.50;29.00;;;;;;5109191;28;20416;-71
2022/05/09 12:05:56;;;;;;;3.30;3.00;;;28.60;29.10;;;;;;5109671;28;20412;-71
2022/05/09 12:08:41;;;;;;;2.92;2.55;;;28.70;28.30;;;;;;5108960;28;20424;-73
2022/05/09 12:11:30;;;;;;;3.55;2.60;;;28.90;28.10;;;;;;5107532;28;20810;-73
2022/05/09 12:14:00;;;;;;;3.20;3.00;;;29.10;27.70;;;;;;5112374;28;20408;-74
2022/05/09 12:16:52;;;;;;;3.42;2.90;;;29.10;27.20;;;;;;5113489;28;20435;-75
2022/05/09 12:19:32;;;;;;;2.77;2.57;;;29.10;28.00;;;;;;5114066;28;20432;-73
2022/05/09 12:22:44;;;;;;;3.27;2.97;;;29.30;27.90;;;;;;5112411;28;20443;-72
2022/05/09 12:25:14;;;;;;;3.03;2.83;;;29.30;27.90;;;;;;5120634;28;20420;-72
2022/05/09 12:27:46;;;;;;;2.88;2.67;;;29.20;27.50;;;;;;5115031;28;20970;-72
2022/05/09 12:30:15;;;;;;;3.30;2.53;;;29.20;27.80;;;;;;5111858;28;20424;-73
2022/05/09 12:32:48;;;;;;;3.13;2.40;;;29.20;28.50;;;;;;5112077;28;20431;-72
2022/05/09 12:35:16;;;;;;;2.50;2.30;;;29.30;28.10;;;;;;5115373;28;20424;-71
2022/05/09 12:37:46;;;;;;;2.72;2.40;;;29.40;28.40;;;;;;5117366;28;20432;-72
2022/05/09 12:40:22;;;;;;;3.00;2.70;;;29.30;28.30;;;;;;5116395;28;20484;-72
2022/05/09 12:42:54;;;;;;;3.80;2.83;;;29.60;28.40;;;;;;5114363;28;20411;-75
2022/05/09 12:45:21;;;;;;;3.13;2.80;;;29.60;27.50;;;;;;5108459;28;20427;-72
2022/05/09 12:47:49;;;;;;;2.80;2.60;;;29.10;27.50;;;;;;5109456;28;20986;-72
2022/05/09 12:50:26;;;;;;;4.03;2.95;;;28.80;29.00;;;;;;5110583;28;20428;-73
2022/05/09 12:52:56;;;;;;;3.70;2.63;;;28.80;28.10;;;;;;5113647;28;20448;-73
2022/05/09 12:58:24;;;;;;;3.30;2.60;;;29.00;28.80;;;;;;5114266;28;20422;-73
2022/05/09 13:00:56;;;;;;;2.92;2.70;;;29.20;27.60;;;;;;5110826;28;20427;-74
2022/05/09 13:03:23;;;;;;;2.90;2.70;;;29.30;27.20;;;;;;5112898;27;20431;-72
2022/05/09 13:05:51;;;;;;;3.87;2.70;;;29.30;27.30;;;;;;5112678;28;20420;-72
2022/05/09 13:08:18;;;;;;;2.60;2.40;;;29.50;28.00;;;;;;5111698;28;20477;-73
2022/05/09 13:10:50;;;;;;;2.67;2.47;;;29.50;26.50;;;;;;5112794;28;20427;-73
2022/05/09 13:13:25;;;;;;;2.42;2.22;;;29.50;27.30;;;;;;5112868;28;21050;-72
2022/05/09 13:15:52;;;;;;;2.72;2.38;;;29.60;27.50;;;;;;5111077;28;20496;-72
2022/05/09 13:18:23;;;;;;;2.65;2.38;;;29.60;27.80;;;;;;5111453;28;20427;-73
2022/05/09 13:20:53;;;;;;;2.90;2.60;;;29.80;26.40;;;;;;5113072;28;20479;-72